Time;durP1;ratioP1;P1;durP2;ratioP2;P2;SDS_P1;SDS_P2;PMS_P1;PMS_P2;Temp;Humidity;BMP_temperature;BMP_pressure;BME280_temperature;BME280_humidity;BME280_pressure;Samples;Min_cycle;Max_cycle;Signal;HPM_P1;HPM_P2
2024/03/06 00:00:09;;;;;;;1999.90;999.90;;;;;;;7.54;100.00;101691.88;10460826;28;20053;-69
2024/03/06 00:05:13;;;;;;;1999.90;999.90;;;;;;;6.68;100.00;101694.34;10461986;28;20055;-70
2024/03/06 00:10:15;;;;;;;1999.90;999.90;;;;;;;6.54;100.00;101699.03;10463275;28;20053;-70
2024/03/06 00:15:18;;;;;;;1999.90;999.90;;;;;;;6.33;100.00;101709.94;10462885;28;20049;-69
2024/03/06 00:20:21;;;;;;;1999.90;999.90;;;;;;;5.84;100.00;101718.91;10462680;28;20140;-70
2024/03/06 00:25:24;;;;;;;1999.90;999.90;;;;;;;5.85;100.00;101723.22;10462029;28;20136;-70
2024/03/06 00:30:26;;;;;;;1999.90;999.90;;;;;;;5.40;100.00;101711.19;10461125;28;20083;-69
2024/03/06 00:35:29;;;;;;;1999.90;999.90;;;;;;;5.33;100.00;101725.22;10444559;28;20417;-69
2024/03/06 00:40:31;;;;;;;1999.90;999.90;;;;;;;5.26;100.00;101728.84;10460832;28;20099;-69
2024/03/06 00:45:34;;;;;;;1999.90;999.90;;;;;;;5.29;100.00;101739.13;10461816;28;20043;-69
2024/03/06 00:50:37;;;;;;;1999.90;999.90;;;;;;;5.05;100.00;101731.84;10461132;28;20057;-69
2024/03/06 00:55:39;;;;;;;1999.90;999.90;;;;;;;4.62;100.00;101734.34;10459915;28;20485;-70
2024/03/06 01:00:41;;;;;;;1999.90;999.90;;;;;;;4.60;100.00;101743.88;10460735;28;20489;-69
2024/03/06 01:05:45;;;;;;;1999.90;999.90;;;;;;;4.71;100.00;101738.53;10460667;28;20406;-70
2024/03/06 01:10:47;;;;;;;1999.90;999.90;;;;;;;4.32;100.00;101753.88;10459560;28;20077;-69
2024/03/06 01:15:50;;;;;;;1999.90;999.90;;;;;;;4.20;100.00;101760.09;10460671;28;20060;-70
2024/03/06 01:20:52;;;;;;;1999.90;999.90;;;;;;;4.26;100.00;101761.75;10459222;28;20055;-69
2024/03/06 01:25:54;;;;;;;1999.90;999.90;;;;;;;4.06;100.00;101767.22;10459797;28;20534;-70
2024/03/06 01:30:58;;;;;;;1999.90;999.90;;;;;;;4.31;100.00;101769.47;10459972;28;20052;-69
2024/03/06 01:36:01;;;;;;;1999.90;999.90;;;;;;;3.96;100.00;101773.41;10459513;28;20053;-69
2024/03/06 01:41:04;;;;;;;1999.90;999.90;;;;;;;3.84;100.00;101770.13;10459286;28;20528;-69
2024/03/06 01:46:07;;;;;;;1999.90;999.90;;;;;;;3.97;100.00;101765.63;10459362;28;20063;-69
2024/03/06 01:51:09;;;;;;;1999.90;999.90;;;;;;;3.78;100.00;101766.75;10458889;28;20053;-69
2024/03/06 01:56:17;;;;;;;1999.90;999.90;;;;;;;3.82;100.00;101769.28;10457895;28;20057;-69
2024/03/06 02:01:20;;;;;;;1999.90;999.90;;;;;;;3.62;100.00;101776.47;10458546;28;20411;-69
2024/03/06 02:06:23;;;;;;;1999.90;999.90;;;;;;;3.67;100.00;101777.28;10458009;28;20053;-69
2024/03/06 02:11:25;;;;;;;1999.90;999.90;;;;;;;3.76;100.00;101778.88;10456782;28;20405;-70
2024/03/06 02:16:27;;;;;;;1999.90;999.90;;;;;;;3.51;100.00;101779.19;10457107;28;20128;-70
2024/03/06 02:21:30;;;;;;;1999.90;999.90;;;;;;;3.49;100.00;101784.38;10457286;28;20375;-69
2024/03/06 02:26:32;;;;;;;1999.90;999.90;;;;;;;3.54;100.00;101789.50;10456210;28;20060;-69
2024/03/06 02:31:34;;;;;;;1999.90;999.90;;;;;;;3.66;100.00;101791.09;10456150;28;20111;-69
2024/03/06 02:36:37;;;;;;;1999.90;999.90;;;;;;;3.29;100.00;101794.09;10457037;28;20049;-69
2024/03/06 02:41:39;;;;;;;1999.90;999.90;;;;;;;3.46;100.00;101791.31;10456952;28;20474;-69
2024/03/06 02:46:42;;;;;;;1999.90;999.90;;;;;;;3.23;100.00;101796.75;10456678;28;20053;-69
2024/03/06 02:51:45;;;;;;;1999.90;999.90;;;;;;;4.34;100.00;101798.78;10438975;28;20102;-70
2024/03/06 02:56:47;;;;;;;1999.90;999.90;;;;;;;4.37;100.00;101792.66;10456648;28;20060;-70
2024/03/06 03:01:49;;;;;;;1999.90;999.90;;;;;;;4.06;100.00;101793.13;10455099;28;20208;-69
2024/03/06 03:06:52;;;;;;;1999.90;999.90;;;;;;;3.95;100.00;101798.50;10456637;28;20044;-69
2024/03/06 03:11:54;;;;;;;1999.90;999.90;;;;;;;3.81;100.00;101796.06;10456329;28;20071;-69
2024/03/06 03:16:56;;;;;;;1999.90;999.90;;;;;;;3.90;100.00;101797.66;10456072;28;20053;-69
2024/03/06 03:21:59;;;;;;;1999.90;999.90;;;;;;;3.66;100.00;101804.88;10455713;28;20395;-69
2024/03/06 03:27:02;;;;;;;1999.90;999.90;;;;;;;3.58;100.00;101805.84;10455027;28;20049;-69
2024/03/06 03:32:05;;;;;;;1999.90;999.90;;;;;;;3.61;100.00;101803.22;10456992;28;20132;-69
2024/03/06 03:37:08;;;;;;;1999.90;999.90;;;;;;;3.91;100.00;101813.19;10464238;28;20049;-69
2024/03/06 03:42:11;;;;;;;1999.90;999.90;;;;;;;3.68;100.00;101815.22;10463896;28;20552;-69
2024/03/06 03:47:13;;;;;;;1999.90;999.90;;;;;;;3.56;100.00;101812.78;10463845;28;20076;-69
2024/03/06 03:52:16;;;;;;;1999.90;999.90;;;;;;;3.48;100.00;101826.69;10463456;28;20485;-70
2024/03/06 03:57:19;;;;;;;1999.90;999.90;;;;;;;3.65;100.00;101828.25;10463383;28;20413;-69
2024/03/06 04:02:22;;;;;;;1999.90;999.90;;;;;;;3.59;100.00;101830.88;10463257;28;20045;-69
2024/03/06 04:07:24;;;;;;;1999.90;999.90;;;;;;;3.64;100.00;101826.50;10462273;28;20488;-69
2024/03/06 04:12:26;;;;;;;1999.90;999.90;;;;;;;3.55;100.00;101827.47;10463139;28;20073;-70
2024/03/06 04:17:29;;;;;;;1999.90;999.90;;;;;;;3.62;100.00;101823.94;10462570;28;20088;-69
2024/03/06 04:22:31;;;;;;;1999.90;999.90;;;;;;;3.52;100.00;101827.50;10462373;28;20080;-69
2024/03/06 04:27:34;;;;;;;1999.90;999.90;;;;;;;3.37;100.00;101825.94;10461430;28;20071;-70
2024/03/06 04:32:36;;;;;;;1999.90;999.90;;;;;;;3.25;100.00;101826.09;10462104;28;20397;-69
2024/03/06 04:37:39;;;;;;;1999.90;999.90;;;;;;;3.28;100.00;101831.25;10467180;22;20060;-72
2024/03/06 04:42:41;;;;;;;1999.90;999.90;;;;;;;3.40;100.00;101835.44;10460617;28;20056;-72
2024/03/06 04:47:44;;;;;;;1999.90;999.90;;;;;;;3.40;100.00;101841.44;10443645;28;20053;-72
2024/03/06 04:52:47;;;;;;;1999.90;999.90;;;;;;;3.20;100.00;101852.00;10461397;28;20056;-71
2024/03/06 04:57:49;;;;;;;1999.90;999.90;;;;;;;3.38;100.00;101866.50;10443246;28;20053;-72
2024/03/06 05:02:52;;;;;;;1999.90;999.90;;;;;;;3.43;100.00;101867.31;10460971;28;20080;-72
2024/03/06 05:08:12;;;;;;;1999.90;999.90;;;;;;;3.30;100.00;101876.94;10460824;28;20041;-72
2024/03/06 05:13:32;;;;;;;1999.90;999.90;;;;;;;3.43;100.00;101890.63;10459695;28;20522;-71
2024/03/06 05:18:52;;;;;;;1999.90;999.90;;;;;;;3.38;100.00;101892.41;10460377;28;20478;-71
2024/03/06 05:24:11;;;;;;;1999.90;999.90;;;;;;;3.63;100.00;101907.66;10460331;28;20041;-71
2024/03/06 05:29:31;;;;;;;1999.90;999.90;;;;;;;3.66;100.00;101913.66;10459046;28;20044;-72
2024/03/06 05:34:51;;;;;;;1999.90;999.90;;;;;;;3.91;100.00;101919.41;10458800;28;20469;-72
2024/03/06 05:40:12;;;;;;;1999.90;999.90;;;;;;;4.09;100.00;101923.53;10459476;28;20052;-72
2024/03/06 05:45:32;;;;;;;1999.90;999.90;;;;;;;4.18;100.00;101927.75;10444250;28;20041;-72
2024/03/06 05:50:55;;;;;;;1999.90;999.90;;;;;;;4.11;100.00;101928.72;10458063;28;20066;-72
2024/03/06 05:56:15;;;;;;;1999.90;999.90;;;;;;;4.16;100.00;101936.44;10457628;28;20037;-71
2024/03/06 06:01:35;;;;;;;1999.90;999.90;;;;;;;4.40;100.00;101956.84;10458760;28;20040;-72
2024/03/06 06:06:38;;;;;;;1999.90;999.90;;;;;;;4.43;100.00;101966.34;10457372;28;20059;-72
2024/03/06 06:11:44;;;;;;;1999.90;999.90;;;;;;;4.53;100.00;101975.69;10457062;28;20132;-72
2024/03/06 06:16:46;;;;;;;1999.90;999.90;;;;;;;4.67;100.00;101977.25;10457165;28;20128;-72
2024/03/06 06:21:49;;;;;;;1999.90;999.90;;;;;;;4.41;100.00;101979.31;10457927;28;20084;-71
2024/03/06 06:26:52;;;;;;;1999.90;999.90;;;;;;;4.38;100.00;101986.28;10457778;28;20063;-72
2024/03/06 06:31:54;;;;;;;1999.90;999.90;;;;;;;4.27;100.00;101992.47;10457522;28;20382;-71
2024/03/06 06:36:56;;;;;;;1999.90;999.90;;;;;;;4.37;100.00;102006.19;10456986;28;20481;-71
2024/03/06 06:41:59;;;;;;;1999.90;999.90;;;;;;;4.60;100.00;102011.03;10456892;28;20170;-68
2024/03/06 06:47:01;;;;;;;1999.90;999.90;;;;;;;4.54;100.00;102021.53;10457106;28;20085;-68
2024/03/06 06:52:04;;;;;;;1999.90;999.90;;;;;;;4.59;100.00;102024.91;10457024;28;20056;-68
2024/03/06 06:57:06;;;;;;;1999.90;999.90;;;;;;;4.71;100.00;102023.00;10456547;28;20128;-68
2024/03/06 07:02:08;;;;;;;1999.90;999.90;;;;;;;4.67;100.00;102042.09;10456416;28;20055;-68
2024/03/06 07:07:11;;;;;;;1999.90;999.90;;;;;;;4.42;100.00;102043.28;10455262;28;20057;-70
2024/03/06 07:12:13;;;;;;;1999.90;999.90;;;;;;;5.02;100.00;102057.19;10455141;28;20120;-70
2024/03/06 07:17:16;;;;;;;1999.90;999.90;;;;;;;4.83;100.00;102060.06;10454973;28;20084;-69
2024/03/06 07:22:18;;;;;;;1999.90;999.90;;;;;;;5.21;100.00;102057.78;10455697;28;20072;-69
2024/03/06 07:27:21;;;;;;;1999.90;999.90;;;;;;;5.29;100.00;102071.53;10455853;28;20052;-69
2024/03/06 07:32:23;;;;;;;1999.90;999.90;;;;;;;5.21;100.00;102076.84;10455720;28;20102;-69
2024/03/06 07:37:26;;;;;;;1999.90;999.90;;;;;;;5.34;100.00;102093.09;10454280;28;20429;-69
2024/03/06 07:42:29;;;;;;;1999.90;999.90;;;;;;;5.63;100.00;102088.31;10454307;28;20045;-69
2024/03/06 07:47:31;;;;;;;1999.90;999.90;;;;;;;5.63;100.00;102093.53;10454076;28;20129;-69
2024/03/06 07:52:34;;;;;;;1999.90;999.90;;;;;;;5.59;100.00;102092.72;10455144;28;20402;-69
2024/03/06 07:57:36;;;;;;;1999.90;999.90;;;;;;;5.82;100.00;102100.16;10454976;28;20053;-70
2024/03/06 08:02:42;;;;;;;1999.90;999.90;;;;;;;5.79;100.00;102089.78;10455035;28;20124;-69
2024/03/06 08:07:46;;;;;;;1999.90;999.90;;;;;;;5.94;100.00;102093.88;10455082;28;20053;-69
2024/03/06 08:12:48;;;;;;;1999.90;999.90;;;;;;;5.87;100.00;102106.13;10453668;28;20051;-69
2024/03/06 08:17:52;;;;;;;1999.90;999.90;;;;;;;5.88;100.00;102107.81;10455588;28;20123;-69
2024/03/06 08:22:56;;;;;;;1999.90;999.90;;;;;;;5.97;100.00;102109.47;10462834;28;20049;-69
2024/03/06 08:27:59;;;;;;;1999.90;999.90;;;;;;;6.22;100.00;102112.50;10461152;28;20483;-69
2024/03/06 08:33:01;;;;;;;1999.90;999.90;;;;;;;6.11;100.00;102109.22;10460838;28;20143;-70
2024/03/06 08:38:04;;;;;;;1999.90;999.90;;;;;;;6.14;100.00;102127.38;10461904;28;20095;-69
2024/03/06 08:43:08;;;;;;;1999.90;999.90;;;;;;;6.10;100.00;102136.97;10461769;28;20059;-69
2024/03/06 08:48:11;;;;;;;1999.90;999.90;;;;;;;6.54;100.00;102142.25;10461593;28;20076;-69
2024/03/06 08:53:15;;;;;;;1999.90;999.90;;;;;;;5.99;100.00;102135.44;10461368;28;20072;-69
2024/03/06 08:58:20;;;;;;;1999.90;999.90;;;;;;;6.68;100.00;102145.44;10459930;28;20053;-69
2024/03/06 09:03:23;;;;;;;1999.90;999.90;;;;;;;6.91;100.00;102149.34;10459722;28;20053;-69
2024/03/06 09:08:26;;;;;;;1999.90;999.90;;;;;;;6.88;100.00;102163.25;10460798;28;20083;-69
2024/03/06 09:13:28;;;;;;;1999.90;999.90;;;;;;;7.30;100.00;102161.56;10460786;28;20045;-69
2024/03/06 09:18:31;;;;;;;1999.90;999.90;;;;;;;7.69;100.00;102175.41;10459211;28;20071;-69
2024/03/06 09:23:34;;;;;;;1999.90;999.90;;;;;;;7.91;100.00;102170.53;10460402;28;20041;-69
2024/03/06 09:28:36;;;;;;;1999.90;999.90;;;;;;;8.16;100.00;102176.00;10460002;28;20053;-69
2024/03/06 09:33:40;;;;;;;1999.90;999.90;;;;;;;8.43;100.00;102180.63;10457945;28;20405;-69
2024/03/06 09:38:42;;;;;;;1999.90;999.90;;;;;;;8.58;100.00;102188.03;10459670;28;20061;-69
2024/03/06 09:43:45;;;;;;;1999.90;999.90;;;;;;;8.34;100.00;102192.13;10459352;28;20045;-69
2024/03/06 09:48:49;;;;;;;1999.90;999.90;;;;;;;8.91;100.00;102195.84;10459492;28;20132;-70
2024/03/06 09:53:52;;;;;;;1999.90;999.90;;;;;;;8.35;100.00;102201.63;10457746;28;20071;-70
2024/03/06 09:58:55;;;;;;;1999.90;999.90;;;;;;;8.03;100.00;102211.13;10458921;28;20103;-69
2024/03/06 10:03:57;;;;;;;1999.90;999.90;;;;;;;7.75;100.00;102227.44;10458675;28;20044;-70
2024/03/06 10:09:08;;;;;;;1999.90;999.90;;;;;;;8.46;100.00;102225.75;10458425;28;20504;-70
2024/03/06 10:14:12;;;;;;;1999.90;999.90;;;;;;;7.99;100.00;102233.81;10458575;28;20064;-70
2024/03/06 10:19:18;;;;;;;1999.90;999.90;;;;;;;8.60;100.00;102227.16;10457988;28;20052;-70
2024/03/06 10:24:23;;;;;;;1999.90;999.90;;;;;;;8.68;100.00;102236.50;10457732;28;20095;-70
2024/03/06 10:29:28;;;;;;;1999.90;999.90;;;;;;;9.27;100.00;102232.25;10456476;28;20074;-70
2024/03/06 10:34:30;;;;;;;1999.90;999.90;;;;;;;8.27;100.00;102235.78;10457422;28;20053;-70
2024/03/06 10:39:38;;;;;;;1999.90;999.90;;;;;;;9.26;100.00;102226.19;10457295;28;20060;-70
2024/03/06 10:44:50;;;;;;;1999.90;999.90;;;;;;;9.33;100.00;102226.88;10455777;28;20119;-70
2024/03/06 10:49:53;;;;;;;1999.90;999.90;;;;;;;9.74;100.00;102229.13;10455686;28;20151;-70
2024/03/06 10:54:58;;;;;;;1999.90;999.90;;;;;;;9.84;100.00;102234.03;10455574;28;20518;-71
2024/03/06 11:00:00;;;;;;;1999.90;999.90;;;;;;;10.15;100.00;102230.41;10455636;28;20124;-70
2024/03/06 11:05:08;;;;;;;1999.90;999.90;;;;;;;10.86;100.00;102242.91;10456354;28;20080;-70
2024/03/06 11:10:16;;;;;;;1999.90;999.90;;;;;;;12.06;96.57;102235.78;10456203;28;20485;-70
2024/03/06 11:15:21;;;;;;;1999.90;999.90;;;;;;;12.08;96.13;102228.69;10456093;28;20045;-70
2024/03/06 11:20:25;;;;;;;1999.90;999.90;;;;;;;12.03;93.74;102233.25;10455076;28;20049;-70
2024/03/06 11:30:59;;;;;;;1999.90;999.90;;;;;;;14.78;81.49;102242.59;10456073;28;20052;-70
2024/03/06 11:36:18;;;;;;;1999.90;999.90;;;;;;;16.43;75.89;102231.66;10454354;28;20462;-71
2024/03/06 11:41:22;;;;;;;1999.90;999.90;;;;;;;17.58;71.76;102236.94;10455671;28;20124;-71
2024/03/06 11:46:50;;;;;;;1999.90;999.90;;;;;;;15.04;73.95;102246.47;10454159;28;20490;-70
2024/03/06 11:51:57;;;;;;;1999.90;999.90;;;;;;;13.68;72.45;102244.47;10455466;28;20110;-71
2024/03/06 11:57:02;;;;;;;1999.90;999.90;;;;;;;18.55;72.29;102232.38;10462670;28;20048;-71
2024/03/06 12:02:06;;;;;;;1999.90;999.90;;;;;;;19.45;66.44;102235.81;10462691;28;20083;-72
2024/03/06 12:07:08;;;;;;;1999.90;999.90;;;;;;;16.85;68.82;102245.91;10462135;28;20076;-72
2024/03/06 12:12:12;;;;;;;1999.90;999.90;;;;;;;19.60;66.04;102240.94;10463242;28;20103;-72
2024/03/06 12:17:15;;;;;;;1999.90;999.90;;;;;;;16.82;67.66;102239.94;10462833;28;20091;-72
2024/03/06 12:22:19;;;;;;;1999.90;999.90;;;;;;;19.38;62.22;102239.84;10462536;28;20060;-73
2024/03/06 12:27:23;;;;;;;1999.90;999.90;;;;;;;16.70;65.90;102241.53;10461166;28;20041;-73
2024/03/06 12:32:29;;;;;;;1999.90;999.90;;;;;;;14.99;69.38;102248.50;10444622;28;20053;-73
2024/03/06 12:37:32;;;;;;;1999.90;999.90;;;;;;;16.67;69.71;102241.72;10460681;28;20061;-73
2024/03/06 12:42:36;;;;;;;1999.90;999.90;;;;;;;15.44;69.69;102257.50;10461872;28;20087;-73
2024/03/06 12:47:42;;;;;;;1999.90;999.90;;;;;;;14.96;70.72;102248.66;10461719;28;20081;-72
2024/03/06 12:52:45;;;;;;;1999.90;999.90;;;;;;;16.24;70.41;102242.47;10461479;28;20053;-73
2024/03/06 12:57:49;;;;;;;1999.90;999.90;;;;;;;18.03;64.54;102238.53;10459863;28;20497;-73
2024/03/06 13:02:52;;;;;;;1999.90;999.90;;;;;;;17.87;65.92;102236.91;10459425;28;20077;-73
2024/03/06 13:07:54;;;;;;;1999.90;999.90;;;;;;;19.60;61.85;102232.97;10459706;28;20053;-73
2024/03/06 13:12:57;;;;;;;1999.90;999.90;;;;;;;18.70;62.51;102236.63;10460943;28;20048;-73
2024/03/06 13:17:59;;;;;;;1999.90;999.90;;;;;;;19.51;59.81;102242.47;10460393;28;20084;-73
2024/03/06 13:23:02;;;;;;;1999.90;999.90;;;;;;;17.97;60.64;102235.34;10460384;28;20098;-73
2024/03/06 13:28:05;;;;;;;1999.90;999.90;;;;;;;16.64;64.66;102252.47;10460259;28;20055;-72
2024/03/06 13:33:07;;;;;;;1999.90;999.90;;;;;;;17.31;64.40;102244.00;10459823;28;20071;-72
2024/03/06 13:38:10;;;;;;;1999.90;999.90;;;;;;;17.24;62.59;102248.84;10459791;28;20049;-72
2024/03/06 13:43:12;;;;;;;1999.90;999.90;;;;;;;17.34;64.20;102249.13;10459192;28;20500;-72
2024/03/06 13:48:16;;;;;;;1999.90;999.90;;;;;;;15.84;67.14;102243.94;10459663;28;20055;-72
2024/03/06 13:53:18;;;;;;;1999.90;999.90;;;;;;;14.82;68.87;102257.28;10459013;28;20049;-72
2024/03/06 13:58:21;;;;;;;1999.90;999.90;;;;;;;13.83;72.45;102256.91;10459755;28;20136;-72
2024/03/06 14:03:24;;;;;;;1999.90;999.90;;;;;;;13.22;74.66;102257.94;10458601;28;20484;-72
2024/03/06 14:08:26;;;;;;;1999.90;999.90;;;;;;;14.18;71.51;102253.50;10458613;28;20106;-72
2024/03/06 14:13:29;;;;;;;1999.90;999.90;;;;;;;13.89;73.22;102256.59;10457587;28;20045;-72
2024/03/06 14:18:31;;;;;;;1999.90;999.90;;;;;;;14.09;73.09;102252.16;10456523;28;20049;-73
2024/03/06 14:23:34;;;;;;;1999.90;999.90;;;;;;;16.97;68.03;102248.75;10454543;28;20472;-72
2024/03/06 14:28:38;;;;;;;1999.90;999.90;;;;;;;15.41;68.76;102268.22;10457450;28;20460;-72
2024/03/06 14:33:41;;;;;;;1999.90;999.90;;;;;;;14.33;70.83;102254.50;10457651;28;20397;-72
2024/03/06 14:38:46;;;;;;;1999.90;999.90;;;;;;;14.81;69.32;102271.41;10457203;28;20087;-72
2024/03/06 14:43:49;;;;;;;1999.90;999.90;;;;;;;14.90;69.44;102267.47;10455844;28;20048;-72
2024/03/06 14:48:52;;;;;;;1999.90;999.90;;;;;;;14.48;69.62;102261.63;10456062;28;20056;-72
2024/03/06 14:53:54;;;;;;;1999.90;999.90;;;;;;;19.40;56.82;102261.84;10455629;28;20124;-71
2024/03/06 14:58:58;;;;;;;1999.90;999.90;;;;;;;16.71;60.24;102262.59;10455605;28;20127;-72
2024/03/06 15:04:00;;;;;;;1999.90;999.90;;;;;;;18.92;56.51;102267.84;10455433;28;20056;-71
2024/03/06 15:09:04;;;;;;;1999.90;999.90;;;;;;;23.60;46.30;102255.69;10456519;28;20052;-71
2024/03/06 15:14:08;;;;;;;1999.90;999.90;;;;;;;21.87;49.74;102261.63;10456017;28;20044;-71
2024/03/06 15:19:10;;;;;;;1999.90;999.90;;;;;;;23.89;41.98;102262.97;10454867;28;20452;-71
2024/03/06 15:24:13;;;;;;;1999.90;999.90;;;;;;;20.83;44.15;102266.34;10456201;28;20086;-71
2024/03/06 15:29:15;;;;;;;1999.90;999.90;;;;;;;17.64;50.40;102270.16;10454896;28;20049;-71
2024/03/06 15:34:18;;;;;;;1999.90;999.90;;;;;;;20.78;46.95;102276.50;10455779;28;20053;-72
2024/03/06 15:39:21;;;;;;;1999.90;999.90;;;;;;;23.67;42.73;102267.53;10454266;28;20056;-72
2024/03/06 15:44:23;;;;;;;1999.90;999.90;;;;;;;15.86;53.55;102274.56;10455327;28;20041;-72
2024/03/06 15:49:26;;;;;;;1999.90;999.90;;;;;;;14.58;59.58;102275.22;10455545;28;20083;-72
2024/03/06 15:54:29;;;;;;;1999.90;999.90;;;;;;;14.19;61.14;102277.13;10455293;28;20045;-72
2024/03/06 15:59:35;;;;;;;1999.90;999.90;;;;;;;13.54;63.41;102282.81;10455342;28;20079;-71
2024/03/06 16:04:37;;;;;;;1999.90;999.90;;;;;;;14.18;62.08;102279.81;10453661;28;20413;-72
2024/03/06 16:09:40;;;;;;;1999.90;999.90;;;;;;;12.74;65.45;102280.22;10454176;28;20127;-71
2024/03/06 16:14:42;;;;;;;1999.90;999.90;;;;;;;12.49;66.99;102283.03;10455162;28;20476;-73
2024/03/06 16:19:45;;;;;;;1999.90;999.90;;;;;;;12.79;66.51;102286.13;10454697;28;20057;-73
2024/03/06 16:24:48;;;;;;;1999.90;999.90;;;;;;;11.43;72.26;102295.88;10453277;28;20532;-72
2024/03/06 16:29:51;;;;;;;1999.90;999.90;;;;;;;11.26;73.00;102291.28;10453459;28;20049;-73
2024/03/06 16:34:53;;;;;;;1999.90;999.90;;;;;;;11.02;74.96;102299.09;10454407;28;20161;-73
2024/03/06 16:39:55;;;;;;;1999.90;999.90;;;;;;;10.77;76.63;102302.56;10456561;28;20087;-73
2024/03/06 16:44:58;;;;;;;1999.90;999.90;;;;;;;10.56;77.54;102304.16;10444092;28;20045;-73
2024/03/06 16:50:01;;;;;;;1999.90;999.90;;;;;;;10.49;78.51;102310.53;10461756;28;20052;-73
2024/03/06 16:55:04;;;;;;;1999.90;999.90;;;;;;;9.95;81.02;102314.81;10500292;22;20063;-69
2024/03/06 17:00:07;;;;;;;1999.90;999.90;;;;;;;9.81;82.52;102330.06;10501648;28;20048;-69
2024/03/06 17:05:11;;;;;;;1999.90;999.90;;;;;;;9.49;83.93;102324.84;10502303;28;20044;-68
2024/03/06 17:10:14;;;;;;;1999.90;999.90;;;;;;;9.33;84.22;102330.53;10501588;28;20547;-68
2024/03/06 17:15:17;;;;;;;1999.90;999.90;;;;;;;8.96;85.73;102334.16;10501233;28;20045;-69
2024/03/06 17:20:19;;;;;;;1999.90;999.90;;;;;;;8.73;85.03;102340.81;10501989;28;20056;-68
2024/03/06 17:25:22;;;;;;;1999.90;999.90;;;;;;;8.60;86.80;102344.63;10500016;28;20072;-68
2024/03/06 17:30:27;;;;;;;1999.90;999.90;;;;;;;8.25;87.80;102356.72;10500117;28;20052;-69
2024/03/06 17:35:29;;;;;;;1999.90;999.90;;;;;;;8.01;89.85;102364.19;10501335;28;20040;-68
2024/03/06 17:40:31;;;;;;;1999.90;999.90;;;;;;;7.85;90.19;102357.59;10500823;28;20489;-69
2024/03/06 17:45:34;;;;;;;1999.90;999.90;;;;;;;7.62;92.64;102378.03;10501171;28;20127;-69
2024/03/06 17:50:37;;;;;;;1999.90;999.90;;;;;;;7.60;91.24;102378.97;10498798;28;20053;-69
2024/03/06 17:55:39;;;;;;;1999.90;999.90;;;;;;;7.39;92.64;102383.66;10500328;28;20131;-68
2024/03/06 18:00:42;;;;;;;1999.90;999.90;;;;;;;7.23;93.00;102385.72;10500395;28;20045;-68
2024/03/06 18:05:45;;;;;;;1999.90;999.90;;;;;;;7.15;94.58;102389.34;10500055;28;20048;-68
2024/03/06 18:10:47;;;;;;;1999.90;999.90;;;;;;;6.96;95.45;102396.59;10499846;28;20053;-68
2024/03/06 18:15:52;;;;;;;1999.90;999.90;;;;;;;7.04;95.17;102406.03;10499590;28;20053;-68
2024/03/06 18:20:54;;;;;;;1999.90;999.90;;;;;;;7.00;95.39;102406.09;10482263;28;20052;-69
2024/03/06 18:25:57;;;;;;;1999.90;999.90;;;;;;;6.81;96.09;102410.75;10498093;28;20127;-68
2024/03/06 18:31:00;;;;;;;1999.90;999.90;;;;;;;6.72;96.04;102409.13;10497599;28;20084;-68
2024/03/06 18:36:06;;;;;;;1999.90;999.90;;;;;;;6.80;96.35;102420.28;10499199;28;20052;-69
2024/03/06 18:41:08;;;;;;;1999.90;999.90;;;;;;;6.61;96.37;102422.31;10497397;28;20080;-68
2024/03/06 18:46:11;;;;;;;1999.90;999.90;;;;;;;6.52;97.87;102430.25;10497207;28;20509;-68
2024/03/06 18:51:13;;;;;;;1999.90;999.90;;;;;;;6.50;96.73;102434.63;10496950;28;20082;-68
2024/03/06 18:56:16;;;;;;;1999.90;999.90;;;;;;;6.29;100.00;102441.00;10496999;28;20071;-68
2024/03/06 19:01:19;;;;;;;1999.90;999.90;;;;;;;6.38;100.00;102440.84;10496852;28;20048;-68
2024/03/06 19:06:21;;;;;;;1999.90;999.90;;;;;;;6.29;100.00;102444.44;10497868;28;20090;-68
2024/03/06 19:11:24;;;;;;;1999.90;999.90;;;;;;;6.26;100.00;102441.88;10498092;28;20055;-68
2024/03/06 19:16:26;;;;;;;1999.90;999.90;;;;;;;6.04;100.00;102451.69;10497547;28;20050;-68
2024/03/06 19:21:29;;;;;;;1999.90;999.90;;;;;;;6.09;100.00;102460.28;10497033;28;20076;-68
2024/03/06 19:26:32;;;;;;;1999.90;999.90;;;;;;;6.33;100.00;102459.13;10497862;28;20055;-69
2024/03/06 19:31:35;;;;;;;1999.90;999.90;;;;;;;6.33;100.00;102450.47;10497461;28;20132;-68
2024/03/06 19:36:37;;;;;;;1999.90;999.90;;;;;;;5.94;100.00;102461.28;10496037;28;20072;-68
2024/03/06 19:41:40;;;;;;;1999.90;999.90;;;;;;;6.00;100.00;102459.53;10495808;28;20048;-67
2024/03/06 19:46:43;;;;;;;1999.90;999.90;;;;;;;5.92;100.00;102460.47;10496696;28;20523;-68
2024/03/06 19:51:45;;;;;;;1999.90;999.90;;;;;;;5.79;100.00;102463.22;10496668;28;20064;-69
2024/03/06 19:56:52;;;;;;;1999.90;999.90;;;;;;;5.88;100.00;102468.31;10495494;28;20505;-68
2024/03/06 20:01:55;;;;;;;1999.90;999.90;;;;;;;6.01;100.00;102467.31;10495798;28;20060;-68
2024/03/06 20:06:58;;;;;;;1999.90;999.90;;;;;;;5.68;100.00;102469.41;10497062;28;20092;-68
2024/03/06 20:12:00;;;;;;;1999.90;999.90;;;;;;;5.79;100.00;102469.28;10496497;28;20052;-69
2024/03/06 20:17:03;;;;;;;1999.90;999.90;;;;;;;5.83;100.00;102468.34;10502118;28;20044;-68
2024/03/06 20:22:05;;;;;;;1999.90;999.90;;;;;;;5.58;100.00;102470.31;10503941;28;20080;-68
2024/03/06 20:27:08;;;;;;;1999.90;999.90;;;;;;;5.81;100.00;102466.66;10502536;28;20048;-68
2024/03/06 20:32:10;;;;;;;1999.90;999.90;;;;;;;5.41;100.00;102470.50;10502609;28;20131;-68
2024/03/06 20:37:13;;;;;;;1999.90;999.90;;;;;;;5.58;100.00;102467.72;10503331;28;20381;-68
2024/03/06 20:42:15;;;;;;;1999.90;999.90;;;;;;;5.56;100.00;102464.28;10502182;28;20131;-68
2024/03/06 20:47:18;;;;;;;1999.90;999.90;;;;;;;5.49;100.00;102463.50;10503018;28;20091;-69
2024/03/06 20:52:21;;;;;;;1999.90;999.90;;;;;;;5.34;100.00;102468.84;10502750;28;20084;-69
2024/03/06 20:57:23;;;;;;;1999.90;999.90;;;;;;;5.35;100.00;102470.56;10502003;28;20076;-68
2024/03/06 21:02:26;;;;;;;1999.90;999.90;;;;;;;5.14;100.00;102464.66;10484802;28;20075;-68
2024/03/06 21:07:29;;;;;;;1999.90;999.90;;;;;;;5.08;100.00;102462.13;10484926;28;20052;-69
2024/03/06 21:12:32;;;;;;;1999.90;999.90;;;;;;;5.27;100.00;102457.63;10502165;28;20060;-68
2024/03/06 21:17:34;;;;;;;1999.90;999.90;;;;;;;4.87;100.00;102470.91;10484495;28;20048;-68
2024/03/06 21:22:39;;;;;;;1999.90;999.90;;;;;;;5.03;100.00;102466.50;10501706;28;20052;-68
2024/03/06 21:27:41;;;;;;;1999.90;999.90;;;;;;;4.99;100.00;102462.19;10500433;28;20137;-68
2024/03/06 21:32:44;;;;;;;1999.90;999.90;;;;;;;4.83;100.00;102471.81;10500488;28;20059;-68
2024/03/06 21:37:47;;;;;;;1999.90;999.90;;;;;;;4.72;100.00;102471.88;10501308;28;20489;-69
2024/03/06 21:42:49;;;;;;;1999.90;999.90;;;;;;;4.70;100.00;102467.59;10501014;28;20139;-68
2024/03/06 21:47:52;;;;;;;1999.90;999.90;;;;;;;4.72;100.00;102469.28;10499676;28;20045;-68
2024/03/06 21:52:57;;;;;;;1999.90;999.90;;;;;;;4.66;100.00;102471.94;10498986;28;20088;-70
2024/03/06 21:57:59;;;;;;;1999.90;999.90;;;;;;;4.55;100.00;102471.97;10499753;28;20040;-69
2024/03/06 22:03:02;;;;;;;1999.90;999.90;;;;;;;4.65;100.00;102472.78;10499006;28;20052;-68